Portada
METAR-TAF:

METAR-TAF

Aeroports :

Cleveland, Mississipí, Estats Units d'Amèrica

latitud: 33-45-40N, longitud: 090-45-28W, altitud: 42 m

Observació

L'informe es va fer fa 19 minuts, a les 00:15 UTC
Vent calma
Temperatura 20°C
Humitat 64%
Pressió 1016 hPa
Visibilitat: 16.1 km
Núvols disperses a una alçada de 10000 ft

METAR: KRNV 040015Z AUTO 00000KT 10SM SCT100 20/13 A2999 RMK AO2 T01990134

Hora: 19:34 (00:34 UTC)


TAF: manca

Observacions i pronòstics meteorològics de més de 4000 aeroports (METAR i TAF).

Les estacions disponibles són els punts grocs i vermells al mapa.

Posi el ratolí al punt desitjat per veure el nom de l'estació.

Feu clic per veure les observacions i els pronòstics meteorològics.

Per canviar el mapa: feu clic els botons verds amb una creu de color negre per apropar; al botó verd amb un guió per allunyar la imatge; o en les fletxes verdes per a mapes adjacents.


METAR-TAF: